Tropical Cyclones
[Index]
Main Index Home Page Stock Weather Photos Extreme Storms Discussion Storm News and Storm Chasing Reports Tropical Cyclones / Hurricanes / Typhoons Weather Data and Links Wild Fires / Bushfires Weather Observation Techniques Weather Picture Catalogue Tornado Pictures and Reports Stock Video Footage and DVDs for sale
Season 1971-1972 Tropical Cyclone BRONWYN Track Map
Season 1971-1972 Summaries: [BoM-AU] [JTWC-AU] [JTWC-SIO] [JTWC-SPAC] [JTWC-SH]
<<- Previous TC | BoM 1971-1972 Season | Next TC ->>

click for intensity scale information  Lat/long Grid: Show Hide

 Date Labels: Show Hide

Bureau of Meteorology Tropical Cyclone Data

Name: BRONWYN
Number: 485 / 197172_06

02 Jan 1972 23:00 UTC to 11 Jan 1972 23:00 UTC

    date/time    lat    long    hPa   cat  kts
1972-01-02 23   16.2   138.7   1004                     
1972-01-03 02   16.0   138.7   1003                     
1972-01-03 05   15.8   138.8   1002                     
1972-01-03 08   15.6   138.8   1002                     
1972-01-03 11   15.4   138.8   1004                     
1972-01-03 14   15.1   138.8   1003                     
1972-01-03 17   14.8   138.9   1002                     
1972-01-03 20   14.5   139.0   1004                     
1972-01-03 23   14.2   139.0   1004                     
1972-01-04 02   13.9   139.0   1004                     
1972-01-04 05   13.5   139.1   1002                     
1972-01-04 08   13.1   139.2   1000                     
1972-01-04 11   12.6   139.3   1001                     
1972-01-04 14   12.1   139.4   1001                     
1972-01-04 17   11.6   139.5   1000                     
1972-01-04 20   11.3   139.8   1000                     
1972-01-04 23   11.3   140.0   1002                     
1972-01-05 02   11.3   140.1   1000                     
1972-01-05 05   11.3   140.2    997                     
1972-01-05 08   11.3   140.3    997                     
1972-01-05 11   11.4   140.4    998                     
1972-01-05 14   11.4   140.5    998                     
1972-01-05 17   11.4   140.6    996                     
1972-01-05 20   11.5   140.7    996                     
1972-01-05 23   11.5   140.8    996                     
1972-01-06 02   11.5   141.0    994    1                
1972-01-06 05   11.6   141.2    993    1                
1972-01-06 08   11.6   141.4    993    1                
1972-01-06 11   11.7   141.6    993    1                
1972-01-06 14   11.7   141.6    995    1                
1972-01-06 17   11.7   141.7    994    1                
1972-01-06 20   11.8   141.8    994    1                
1972-01-06 23   11.8   141.9    996                     
1972-01-07 05   13.7   141.5    993    1                
1972-01-07 08   13.9   141.7    993    1                
1972-01-07 11   13.7   141.8    993    1                
1972-01-07 17   15.2   141.8    993    1                
1972-01-07 20   15.9   142.4    994    1                
1972-01-07 23   16.0   142.1    998                     
1972-01-08 02   16.3   142.3    994    1                
1972-01-08 05   16.6   142.5    994    1                
1972-01-08 08   16.9   142.7    994    1                
1972-01-08 11   17.2   142.8    995    1                
1972-01-08 17   17.8   142.9    995    1                
1972-01-08 20   18.1   142.9    996                     
1972-01-08 23   18.3   143.0    995    1                
1972-01-09 02   18.5   143.0    996                     
1972-01-09 05   18.8   142.9    995    1                
1972-01-09 08   19.0   142.8    995    1                
1972-01-09 11   19.2   142.6    995    1                
1972-01-09 14   19.4   142.3    995    1                
1972-01-09 17   19.6   142.0    994    1                
1972-01-09 20   19.8   141.7    994    1                
1972-01-09 23   20.1   141.5    996                     
1972-01-10 02   20.3   141.3    994    1                
1972-01-10 05   20.5   141.1    995    1                
1972-01-10 08   20.7   140.9    996                     
1972-01-10 11   21.0   140.7    998                     
1972-01-10 14   21.3   140.7    997                     
1972-01-10 17   21.6   140.8    995    1                
1972-01-10 20   21.9   140.8    997                     
1972-01-10 23   22.2   140.9    998                     
1972-01-11 02   22.5   140.9    997                     
1972-01-11 05   22.8   141.0    996                     
1972-01-11 08   23.1   141.2    997                     
1972-01-11 11   23.4   141.4    998                     
1972-01-11 14   23.8   141.7    997                     
1972-01-11 17   24.2   142.0    997                     
1972-01-11 20   24.6   142.3    997                     
1972-01-11 23   25.1   142.6    997                     
Winds are 10-min average.

Tropical cyclone tracks developed by Michael Bath using data from the Bureau of Meteorology and Google Maps.


[Australian Severe Weather index] [Copyright Notice] [Email Contacts] [Search This Site] [Privacy Policy]
Document: tropical_cyclone_bronwyn.htm Updated: 30 May 2013